Time;durP1;ratioP1;P1;durP2;ratioP2;P2;SDS_P1;SDS_P2;PMS_P1;PMS_P2;Temp;Humidity;BMP_temperature;BMP_pressure;BME280_temperature;BME280_humidity;BME280_pressure;Samples;Min_cycle;Max_cycle;Signal;HPM_P1;HPM_P2
2021/09/02 00:01:09;;;;;;;26.20;18.75;;;;;;;;;;5113426;28;20028;-59
2021/09/02 00:03:34;;;;;;;25.88;19.33;;;;;;;;;;5113377;28;20051;-58
2021/09/02 00:05:59;;;;;;;27.95;18.75;;;;;;;;;;5113117;28;20064;-58
2021/09/02 00:08:24;;;;;;;25.05;18.50;;;;;;;;;;5113405;28;20470;-59
2021/09/02 00:10:50;;;;;;;25.35;18.15;;;;;;;;;;5109958;28;20024;-58
2021/09/02 00:13:16;;;;;;;22.80;17.40;;;;;;;;;;5108356;28;20025;-59
2021/09/02 00:15:41;;;;;;;21.63;16.98;;;;;;;;;;5113215;28;20102;-59
2021/09/02 00:18:06;;;;;;;24.88;17.85;;;;;;;;;;5113250;28;20236;-59
2021/09/02 00:20:31;;;;;;;25.13;18.73;;;;;;;;;;5113193;28;20031;-59
2021/09/02 00:22:57;;;;;;;28.77;19.63;;;;;;;;;;5112867;28;20408;-56
2021/09/02 00:25:22;;;;;;;26.83;19.08;;;;;;;;;;5112282;28;20107;-58
2021/09/02 00:27:47;;;;;;;28.20;19.10;;;;;;;;;;5112382;28;20063;-60
2021/09/02 00:30:12;;;;;;;23.02;17.63;;;;;;;;;;5112957;28;20034;-59
2021/09/02 00:32:38;;;;;;;20.75;15.57;;;;;;;;;;5112649;28;20454;-59
2021/09/02 00:35:04;;;;;;;18.63;14.68;;;;;;;;;;5112575;28;20039;-59
2021/09/02 00:37:29;;;;;;;18.35;14.73;;;;;;;;;;5112622;28;20024;-60
2021/09/02 00:39:54;;;;;;;19.10;14.35;;;;;;;;;;5112404;28;20022;-58
2021/09/02 00:42:19;;;;;;;20.00;14.93;;;;;;;;;;5112092;28;20046;-59
2021/09/02 00:44:46;;;;;;;29.00;17.42;;;;;;;;;;5112360;28;20039;-60
2021/09/02 00:47:12;;;;;;;22.23;16.85;;;;;;;;;;5112940;28;20030;-59
2021/09/02 00:49:40;;;;;;;24.02;17.30;;;;;;;;;;5112819;28;20486;-59
2021/09/02 00:52:13;;;;;;;25.08;17.48;;;;;;;;;;5112529;28;20022;-58
2021/09/02 00:54:42;;;;;;;21.92;15.50;;;;;;;;;;5111147;28;20084;-59
2021/09/02 00:57:09;;;;;;;18.45;15.15;;;;;;;;;;5093241;28;20479;-58
2021/09/02 00:59:34;;;;;;;19.25;15.68;;;;;;;;;;5112447;28;20031;-58
2021/09/02 01:01:59;;;;;;;19.13;14.23;;;;;;;;;;5111734;28;20019;-58
2021/09/02 01:04:24;;;;;;;16.83;14.07;;;;;;;;;;5112454;28;20027;-58
2021/09/02 01:06:51;;;;;;;17.52;14.48;;;;;;;;;;5112145;28;20468;-58
2021/09/02 01:09:17;;;;;;;23.60;17.23;;;;;;;;;;5112094;28;20110;-59
2021/09/02 01:11:42;;;;;;;20.35;16.25;;;;;;;;;;5110414;28;20118;-59
2021/09/02 01:14:07;;;;;;;16.88;15.07;;;;;;;;;;5111980;28;20027;-59
2021/09/02 01:16:32;;;;;;;15.93;13.65;;;;;;;;;;5112124;28;20028;-59
2021/09/02 01:18:58;;;;;;;17.42;13.43;;;;;;;;;;5112372;28;20030;-59
2021/09/02 01:21:23;;;;;;;21.75;15.35;;;;;;;;;;5112245;28;20016;-59
2021/09/02 01:23:49;;;;;;;21.33;15.85;;;;;;;;;;5111684;28;20108;-59
2021/09/02 01:26:17;;;;;;;21.88;16.27;;;;;;;;;;5111612;28;20100;-59
2021/09/02 01:28:43;;;;;;;21.50;15.95;;;;;;;;;;5112009;28;20036;-59
2021/09/02 01:31:09;;;;;;;20.92;15.82;;;;;;;;;;5112064;28;20423;-58
2021/09/02 01:33:35;;;;;;;22.48;15.88;;;;;;;;;;5111994;28;20016;-59
2021/09/02 01:36:00;;;;;;;19.50;14.40;;;;;;;;;;5111590;28;20016;-59
2021/09/02 01:38:25;;;;;;;22.13;16.02;;;;;;;;;;5110774;28;20020;-58
2021/09/02 01:40:51;;;;;;;24.58;16.10;;;;;;;;;;5091338;28;20008;-59
2021/09/02 01:43:16;;;;;;;22.08;16.13;;;;;;;;;;5086371;28;20080;-58
2021/09/02 01:45:42;;;;;;;24.13;15.82;;;;;;;;;;5112112;28;20016;-59
2021/09/02 01:48:07;;;;;;;22.05;16.30;;;;;;;;;;5093851;28;20027;-58
2021/09/02 01:50:35;;;;;;;24.58;17.48;;;;;;;;;;5112026;28;20480;-58
2021/09/02 01:53:05;;;;;;;23.13;16.13;;;;;;;;;;5111135;28;20015;-58
2021/09/02 01:55:31;;;;;;;24.05;17.75;;;;;;;;;;5112012;28;20053;-58
2021/09/02 01:57:56;;;;;;;21.00;16.17;;;;;;;;;;5111104;28;20112;-58
2021/09/02 02:00:22;;;;;;;20.85;15.65;;;;;;;;;;5111962;28;20488;-57
2021/09/02 02:02:47;;;;;;;20.60;15.38;;;;;;;;;;5111739;28;20027;-57
2021/09/02 02:05:13;;;;;;;18.75;15.38;;;;;;;;;;5111855;28;20012;-59
2021/09/02 02:07:38;;;;;;;24.52;16.13;;;;;;;;;;5112096;28;20466;-58
2021/09/02 02:10:04;;;;;;;21.50;16.35;;;;;;;;;;5115590;28;20102;-58
2021/09/02 02:12:29;;;;;;;25.05;17.05;;;;;;;;;;5113861;28;20063;-58
2021/09/02 02:14:54;;;;;;;23.65;17.88;;;;;;;;;;5115417;28;20028;-58
2021/09/02 02:17:20;;;;;;;27.45;17.60;;;;;;;;;;5115555;28;20448;-58
2021/09/02 02:19:45;;;;;;;26.27;16.83;;;;;;;;;;5115464;28;20024;-60
2021/09/02 02:22:10;;;;;;;22.50;16.52;;;;;;;;;;5104964;28;20036;-59
2021/09/02 02:24:35;;;;;;;24.63;17.42;;;;;;;;;;5115452;28;20056;-59
2021/09/02 02:27:00;;;;;;;26.83;16.80;;;;;;;;;;5114826;28;20022;-59
2021/09/02 02:29:25;;;;;;;27.42;18.10;;;;;;;;;;5115146;28;20035;-58
2021/09/02 02:31:51;;;;;;;23.90;16.52;;;;;;;;;;5114669;28;20034;-59
2021/09/02 02:34:16;;;;;;;22.67;16.60;;;;;;;;;;5115047;28;20016;-58
2021/09/02 02:36:42;;;;;;;21.15;17.25;;;;;;;;;;5115105;28;20072;-59
2021/09/02 02:39:07;;;;;;;25.30;18.65;;;;;;;;;;5115113;28;20454;-59
2021/09/02 02:41:32;;;;;;;24.67;17.13;;;;;;;;;;5113828;28;20023;-58
2021/09/02 02:43:58;;;;;;;25.33;17.52;;;;;;;;;;5115065;28;20019;-60
2021/09/02 02:46:23;;;;;;;25.67;18.15;;;;;;;;;;5114986;28;20022;-58
2021/09/02 02:48:48;;;;;;;22.25;16.40;;;;;;;;;;5114912;28;20022;-59
2021/09/02 02:51:13;;;;;;;25.75;17.88;;;;;;;;;;5114643;28;20050;-58
2021/09/02 02:53:39;;;;;;;27.75;19.27;;;;;;;;;;5114487;28;20393;-59
2021/09/02 02:56:04;;;;;;;27.15;18.58;;;;;;;;;;5098172;28;20024;-58
2021/09/02 02:58:29;;;;;;;27.75;18.75;;;;;;;;;;5101566;28;20394;-58
2021/09/02 03:00:54;;;;;;;27.73;18.45;;;;;;;;;;5114581;28;20427;-58
2021/09/02 03:03:20;;;;;;;23.42;17.10;;;;;;;;;;5114581;28;20030;-58
2021/09/02 03:05:45;;;;;;;26.35;17.92;;;;;;;;;;5114423;28;20474;-59
2021/09/02 03:08:10;;;;;;;28.98;18.40;;;;;;;;;;5115303;28;20433;-59
2021/09/02 03:10:35;;;;;;;26.98;17.50;;;;;;;;;;5114051;28;20458;-59
2021/09/02 03:13:00;;;;;;;23.25;17.02;;;;;;;;;;5114230;28;20532;-59
2021/09/02 03:15:26;;;;;;;27.70;18.65;;;;;;;;;;5114333;28;20043;-59
2021/09/02 03:17:51;;;;;;;25.63;16.83;;;;;;;;;;5114293;28;20059;-56
2021/09/02 03:20:16;;;;;;;19.05;14.45;;;;;;;;;;5113454;28;20386;-57
2021/09/02 03:22:41;;;;;;;18.60;14.70;;;;;;;;;;5114257;28;20454;-58
2021/09/02 03:25:07;;;;;;;24.65;17.02;;;;;;;;;;5113990;28;20492;-58
2021/09/02 03:27:32;;;;;;;22.27;16.08;;;;;;;;;;5113774;28;20401;-58
2021/09/02 03:29:58;;;;;;;21.25;16.55;;;;;;;;;;5113941;28;20027;-57
2021/09/02 03:32:23;;;;;;;22.10;16.50;;;;;;;;;;5113763;28;20156;-58
2021/09/02 03:34:48;;;;;;;21.27;14.75;;;;;;;;;;5095345;28;20489;-58
2021/09/02 03:37:13;;;;;;;24.90;15.82;;;;;;;;;;5093364;28;20016;-58
2021/09/02 03:39:38;;;;;;;20.77;14.82;;;;;;;;;;5094175;28;20073;-58
2021/09/02 03:42:04;;;;;;;24.30;17.38;;;;;;;;;;5112773;28;20500;-58
2021/09/02 03:44:29;;;;;;;25.00;17.70;;;;;;;;;;5114002;28;20026;-59
2021/09/02 03:46:54;;;;;;;22.70;16.92;;;;;;;;;;5108728;28;20355;-59
2021/09/02 03:49:19;;;;;;;23.05;16.98;;;;;;;;;;5113442;28;20019;-59
2021/09/02 03:51:44;;;;;;;29.58;18.25;;;;;;;;;;5113765;28;20024;-59
2021/09/02 03:54:10;;;;;;;27.88;18.95;;;;;;;;;;5113636;28;20027;-59
2021/09/02 03:56:35;;;;;;;32.20;20.15;;;;;;;;;;5113022;28;20160;-58
2021/09/02 03:59:00;;;;;;;26.77;18.75;;;;;;;;;;5113697;28;20015;-58
2021/09/02 04:01:25;;;;;;;27.00;18.98;;;;;;;;;;5112862;28;20514;-59
2021/09/02 04:03:54;;;;;;;27.58;18.95;;;;;;;;;;5113791;28;20023;-59
2021/09/02 04:06:19;;;;;;;34.30;20.30;;;;;;;;;;5112853;28;20038;-59
2021/09/02 04:08:44;;;;;;;31.92;20.85;;;;;;;;;;5113458;28;20020;-58
2021/09/02 04:11:09;;;;;;;30.17;20.65;;;;;;;;;;5112474;28;20034;-58
2021/09/02 04:13:34;;;;;;;35.75;21.25;;;;;;;;;;5113229;28;20244;-60
2021/09/02 04:16:00;;;;;;;27.85;19.90;;;;;;;;;;5105837;28;20581;-59
2021/09/02 04:18:25;;;;;;;27.13;20.08;;;;;;;;;;5111920;28;20084;-59
2021/09/02 04:20:50;;;;;;;29.75;18.65;;;;;;;;;;5113115;28;20012;-58
2021/09/02 04:23:15;;;;;;;27.40;17.90;;;;;;;;;;5113181;28;20039;-59
2021/09/02 04:25:40;;;;;;;19.95;14.52;;;;;;;;;;5112724;28;20016;-59
2021/09/02 04:28:06;;;;;;;22.08;15.48;;;;;;;;;;5112011;28;20119;-56
2021/09/02 04:30:31;;;;;;;21.13;15.32;;;;;;;;;;5112167;28;20098;-58
2021/09/02 04:32:56;;;;;;;21.08;15.27;;;;;;;;;;5112529;28;20032;-57
2021/09/02 04:35:21;;;;;;;18.40;15.05;;;;;;;;;;5112270;28;20069;-58
2021/09/02 04:37:47;;;;;;;18.75;13.52;;;;;;;;;;5112345;28;20463;-58
2021/09/02 04:40:13;;;;;;;19.02;15.07;;;;;;;;;;5112028;28;20480;-59
2021/09/02 04:42:38;;;;;;;21.80;16.35;;;;;;;;;;5101782;28;20529;-58
2021/09/02 04:45:04;;;;;;;25.52;18.67;;;;;;;;;;5112319;28;20095;-59
2021/09/02 04:47:30;;;;;;;20.92;16.08;;;;;;;;;;5112689;28;20072;-59
2021/09/02 04:49:55;;;;;;;22.05;16.35;;;;;;;;;;5112178;28;20032;-59
2021/09/02 04:52:20;;;;;;;21.65;15.20;;;;;;;;;;5113101;28;20016;-58
2021/09/02 04:54:45;;;;;;;19.70;14.82;;;;;;;;;;5112280;28;20443;-58
2021/09/02 04:57:11;;;;;;;20.63;15.23;;;;;;;;;;5111827;28;20496;-59
2021/09/02 04:59:36;;;;;;;17.20;14.85;;;;;;;;;;5112147;28;20035;-57
2021/09/02 05:02:01;;;;;;;18.98;14.80;;;;;;;;;;5112435;28;20403;-58
2021/09/02 05:04:26;;;;;;;18.80;14.90;;;;;;;;;;5112763;28;20031;-59
2021/09/02 05:06:52;;;;;;;19.02;14.68;;;;;;;;;;5111983;28;20491;-59
2021/09/02 05:09:17;;;;;;;18.67;15.43;;;;;;;;;;5112021;28;20032;-57
2021/09/02 05:11:42;;;;;;;17.70;14.82;;;;;;;;;;5111678;28;20055;-58
2021/09/02 05:14:07;;;;;;;16.98;14.13;;;;;;;;;;5112112;28;20038;-58
2021/09/02 05:16:33;;;;;;;20.63;14.80;;;;;;;;;;5111723;28;20036;-58
2021/09/02 05:18:58;;;;;;;20.95;14.55;;;;;;;;;;5112437;28;20011;-58
2021/09/02 05:21:23;;;;;;;20.52;15.90;;;;;;;;;;5111813;28;20098;-58
2021/09/02 05:23:48;;;;;;;21.73;16.67;;;;;;;;;;5112086;28;20488;-58
2021/09/02 05:26:14;;;;;;;24.70;17.55;;;;;;;;;;5111398;28;20016;-57
2021/09/02 05:28:39;;;;;;;22.58;18.63;;;;;;;;;;5111465;28;20051;-58
2021/09/02 05:31:04;;;;;;;26.05;18.20;;;;;;;;;;5093873;28;20091;-58
2021/09/02 05:33:29;;;;;;;23.17;17.30;;;;;;;;;;5109831;28;20016;-57
2021/09/02 05:35:54;;;;;;;22.33;17.05;;;;;;;;;;5102768;28;20291;-57
2021/09/02 05:38:20;;;;;;;21.50;16.65;;;;;;;;;;5111583;28;20039;-57
2021/09/02 05:40:45;;;;;;;21.05;16.55;;;;;;;;;;5111188;28;20033;-58
2021/09/02 05:43:10;;;;;;;26.20;19.02;;;;;;;;;;5113690;27;20015;-58
2021/09/02 05:45:36;;;;;;;29.02;20.13;;;;;;;;;;5116431;27;20389;-56
2021/09/02 05:48:04;;;;;;;26.23;19.52;;;;;;;;;;5115513;28;20490;-57
2021/09/02 05:50:30;;;;;;;25.60;19.23;;;;;;;;;;5115235;28;20035;-58
2021/09/02 05:52:55;;;;;;;26.50;19.95;;;;;;;;;;5115036;28;20023;-58
2021/09/02 05:55:21;;;;;;;27.30;18.80;;;;;;;;;;5115195;28;20042;-59
2021/09/02 05:57:46;;;;;;;28.33;20.02;;;;;;;;;;5114487;28;20020;-58
2021/09/02 06:00:12;;;;;;;27.27;19.77;;;;;;;;;;5116071;27;20462;-58
2021/09/02 06:02:37;;;;;;;30.13;21.55;;;;;;;;;;5114116;28;20101;-58
2021/09/02 06:05:02;;;;;;;30.20;21.77;;;;;;;;;;5115060;28;20043;-58
2021/09/02 06:07:28;;;;;;;27.45;20.63;;;;;;;;;;5115018;28;20106;-58
2021/09/02 06:09:53;;;;;;;31.73;22.45;;;;;;;;;;5113513;28;20023;-58
2021/09/02 06:12:18;;;;;;;26.70;20.05;;;;;;;;;;5113274;28;20269;-57
2021/09/02 06:14:43;;;;;;;25.88;19.90;;;;;;;;;;5114929;28;20363;-59
2021/09/02 06:17:08;;;;;;;28.85;21.90;;;;;;;;;;5114904;28;20024;-58
2021/09/02 06:19:34;;;;;;;29.70;20.95;;;;;;;;;;5114826;28;20008;-59
2021/09/02 06:21:59;;;;;;;26.05;21.00;;;;;;;;;;5114596;28;20031;-58
2021/09/02 06:24:24;;;;;;;27.92;19.80;;;;;;;;;;5114877;28;20019;-58
2021/09/02 06:26:49;;;;;;;28.33;20.30;;;;;;;;;;5114232;28;20015;-58
2021/09/02 06:29:14;;;;;;;26.23;20.30;;;;;;;;;;5115282;28;20044;-58
2021/09/02 06:31:41;;;;;;;34.00;21.67;;;;;;;;;;5113852;28;20028;-59
2021/09/02 06:34:06;;;;;;;40.88;21.73;;;;;;;;;;5114229;28;20037;-57
2021/09/02 06:36:31;;;;;;;38.38;20.98;;;;;;;;;;5114690;28;20474;-59
2021/09/02 06:38:57;;;;;;;31.27;21.20;;;;;;;;;;5115109;28;20071;-59
2021/09/02 06:41:22;;;;;;;34.00;23.60;;;;;;;;;;5113928;28;20051;-57
2021/09/02 06:43:48;;;;;;;31.70;22.20;;;;;;;;;;5114389;28;20797;-58
2021/09/02 06:46:13;;;;;;;31.20;22.60;;;;;;;;;;5114261;28;20397;-58
2021/09/02 06:48:38;;;;;;;33.80;22.45;;;;;;;;;;5114414;28;20019;-58
2021/09/02 06:51:03;;;;;;;33.93;22.60;;;;;;;;;;5114464;28;20065;-58
2021/09/02 06:53:28;;;;;;;31.45;20.90;;;;;;;;;;5113905;28;20561;-58
2021/09/02 06:55:54;;;;;;;35.42;23.27;;;;;;;;;;5114220;28;20474;-59
2021/09/02 06:58:19;;;;;;;34.13;23.10;;;;;;;;;;5113955;28;20494;-58
2021/09/02 07:00:44;;;;;;;33.78;22.75;;;;;;;;;;5113691;28;20129;-58
2021/09/02 07:03:09;;;;;;;33.00;22.35;;;;;;;;;;5114240;28;20095;-59
2021/09/02 07:05:35;;;;;;;33.15;23.02;;;;;;;;;;5114025;28;20232;-59
2021/09/02 07:08:00;;;;;;;38.15;23.75;;;;;;;;;;5114011;28;20509;-58
2021/09/02 07:10:25;;;;;;;36.38;23.48;;;;;;;;;;5113894;28;20046;-59
2021/09/02 07:12:50;;;;;;;35.13;22.80;;;;;;;;;;5113829;28;20046;-59
2021/09/02 07:15:16;;;;;;;36.22;23.50;;;;;;;;;;5113472;28;20059;-59
2021/09/02 07:17:41;;;;;;;35.67;24.13;;;;;;;;;;5112973;28;20027;-61
2021/09/02 07:20:07;;;;;;;36.58;24.55;;;;;;;;;;5113785;28;20012;-58
2021/09/02 07:22:32;;;;;;;35.30;23.02;;;;;;;;;;5113529;28;20355;-59
2021/09/02 07:24:58;;;;;;;34.00;23.00;;;;;;;;;;5113640;28;20042;-59
2021/09/02 07:27:23;;;;;;;35.92;23.52;;;;;;;;;;5113051;27;20012;-54
2021/09/02 07:29:48;;;;;;;32.78;21.73;;;;;;;;;;5113941;28;20489;-58
2021/09/02 07:32:13;;;;;;;34.15;21.10;;;;;;;;;;5113431;28;20024;-58
2021/09/02 07:34:39;;;;;;;29.17;20.27;;;;;;;;;;5113856;28;20023;-57
2021/09/02 07:37:04;;;;;;;29.38;20.25;;;;;;;;;;5112737;28;20496;-57
2021/09/02 07:39:29;;;;;;;36.78;22.92;;;;;;;;;;5113517;28;20066;-56
2021/09/02 07:41:55;;;;;;;37.10;24.15;;;;;;;;;;5112793;28;20015;-56
2021/09/02 07:44:20;;;;;;;36.35;23.30;;;;;;;;;;5108449;28;20064;-57
2021/09/02 07:46:46;;;;;;;31.83;21.05;;;;;;;;;;5112517;28;20371;-56
2021/09/02 07:49:11;;;;;;;34.58;23.23;;;;;;;;;;5112646;28;20386;-57
2021/09/02 07:51:36;;;;;;;31.58;21.00;;;;;;;;;;5111032;28;20027;-56
2021/09/02 07:54:02;;;;;;;34.22;21.70;;;;;;;;;;5112473;28;20031;-58
2021/09/02 07:56:27;;;;;;;32.15;21.73;;;;;;;;;;5111481;28;20019;-57
2021/09/02 07:58:52;;;;;;;30.67;21.67;;;;;;;;;;5112412;28;20023;-57
2021/09/02 08:01:22;;;;;;;30.13;20.85;;;;;;;;;;5109834;28;20027;-57
2021/09/02 08:03:47;;;;;;;34.33;21.30;;;;;;;;;;5110120;28;20035;-58
2021/09/02 08:06:12;;;;;;;36.33;22.95;;;;;;;;;;5093251;28;20016;-56
2021/09/02 08:08:38;;;;;;;35.60;21.45;;;;;;;;;;5112797;28;20034;-57
2021/09/02 08:11:03;;;;;;;35.38;21.98;;;;;;;;;;5112908;28;20378;-55
2021/09/02 08:13:28;;;;;;;34.58;22.10;;;;;;;;;;5111968;28;20070;-56
2021/09/02 08:15:53;;;;;;;33.60;22.17;;;;;;;;;;5112621;28;20412;-53
2021/09/02 08:18:18;;;;;;;35.15;21.35;;;;;;;;;;5123106;27;20285;-57
2021/09/02 08:20:44;;;;;;;44.90;28.73;;;;;;;;;;5124460;27;20149;-58
2021/09/02 08:23:09;;;;;;;51.45;32.63;;;;;;;;;;5112199;28;20460;-56
2021/09/02 08:25:35;;;;;;;49.20;31.20;;;;;;;;;;5112589;28;20070;-57
2021/09/02 08:28:00;;;;;;;50.85;32.03;;;;;;;;;;5111774;28;20036;-57
2021/09/02 08:30:26;;;;;;;43.15;31.13;;;;;;;;;;5111974;28;20032;-56
2021/09/02 08:32:51;;;;;;;46.85;30.02;;;;;;;;;;5112205;28;20023;-56
2021/09/02 08:35:30;;;;;;;41.92;29.50;;;;;;;;;;5112327;28;20071;-58
2021/09/02 08:37:57;;;;;;;47.40;29.23;;;;;;;;;;5111960;28;20486;-57
2021/09/02 08:40:23;;;;;;;43.80;29.95;;;;;;;;;;5111663;28;20550;-56
2021/09/02 08:42:48;;;;;;;44.60;28.65;;;;;;;;;;5112059;28;20095;-57
2021/09/02 08:45:14;;;;;;;40.40;27.75;;;;;;;;;;5099000;28;20110;-56
2021/09/02 08:47:41;;;;;;;41.80;28.27;;;;;;;;;;5111333;28;20164;-57
2021/09/02 08:50:07;;;;;;;42.83;29.23;;;;;;;;;;5112178;28;20038;-55
2021/09/02 08:52:32;;;;;;;40.78;28.60;;;;;;;;;;5112338;28;20019;-57
2021/09/02 08:54:58;;;;;;;42.03;27.92;;;;;;;;;;5112098;28;20051;-57
2021/09/02 08:57:23;;;;;;;39.05;27.27;;;;;;;;;;5111284;28;20024;-53
2021/09/02 08:59:49;;;;;;;36.67;26.67;;;;;;;;;;5112205;28;20015;-58
2021/09/02 09:02:24;;;;;;;35.43;24.70;;;;;;;;;;5111549;28;20022;-57
2021/09/02 09:05:01;;;;;;;36.00;26.20;;;;;;;;;;5110204;28;20266;-58
2021/09/02 09:07:30;;;;;;;38.08;25.13;;;;;;;;;;5110309;28;20110;-56
2021/09/02 09:09:55;;;;;;;37.47;26.13;;;;;;;;;;5111640;28;20385;-57
2021/09/02 09:12:33;;;;;;;40.03;26.95;;;;;;;;;;5111137;28;20025;-58
2021/09/02 09:14:59;;;;;;;42.30;28.77;;;;;;;;;;5111637;28;20023;-57
2021/09/02 09:17:24;;;;;;;34.00;26.45;;;;;;;;;;5111235;28;20028;-57
2021/09/02 09:19:50;;;;;;;33.78;25.02;;;;;;;;;;5112358;28;20141;-58
2021/09/02 09:22:16;;;;;;;35.63;24.73;;;;;;;;;;5111909;28;20011;-57
2021/09/02 09:24:53;;;;;;;36.75;26.17;;;;;;;;;;5111589;28;20466;-55
2021/09/02 09:27:24;;;;;;;38.63;26.20;;;;;;;;;;5111144;28;20020;-58
2021/09/02 09:30:08;;;;;;;36.45;26.40;;;;;;;;;;5111469;28;20059;-56
2021/09/02 09:32:41;;;;;;;36.25;25.27;;;;;;;;;;5111028;28;20046;-57
2021/09/02 09:35:07;;;;;;;31.88;22.73;;;;;;;;;;5111536;28;20031;-58
2021/09/02 09:37:33;;;;;;;28.90;21.38;;;;;;;;;;5111347;28;20012;-56
2021/09/02 09:40:27;;;;;;;28.88;21.30;;;;;;;;;;5111709;28;20030;-59
2021/09/02 09:43:06;;;;;;;32.50;20.33;;;;;;;;;;5093203;28;20431;-58
2021/09/02 09:46:01;;;;;;;31.05;20.80;;;;;;;;;;5111487;28;20020;-58
2021/09/02 09:48:28;;;;;;;26.85;20.83;;;;;;;;;;5088418;28;20542;-57
2021/09/02 09:51:08;;;;;;;26.33;18.35;;;;;;;;;;5111332;28;20020;-58
2021/09/02 09:53:34;;;;;;;25.63;19.40;;;;;;;;;;5111440;28;20074;-58
2021/09/02 09:55:59;;;;;;;24.60;18.50;;;;;;;;;;5110287;28;20486;-58
2021/09/02 09:58:26;;;;;;;26.00;18.42;;;;;;;;;;5111159;28;20486;-57
2021/09/02 10:01:01;;;;;;;22.98;18.50;;;;;;;;;;5110971;28;20020;-57
2021/09/02 10:03:29;;;;;;;26.17;18.40;;;;;;;;;;5111035;28;20026;-57
2021/09/02 10:05:54;;;;;;;21.67;16.58;;;;;;;;;;5111429;28;20068;-58
2021/09/02 10:08:20;;;;;;;22.02;16.27;;;;;;;;;;5091348;28;20102;-56
2021/09/02 10:10:48;;;;;;;20.30;16.20;;;;;;;;;;5095947;28;20020;-57
2021/09/02 10:13:14;;;;;;;19.85;15.55;;;;;;;;;;5110319;28;20493;-59
2021/09/02 10:15:39;;;;;;;17.48;14.57;;;;;;;;;;5111341;28;20019;-58
2021/09/02 10:18:05;;;;;;;17.90;15.15;;;;;;;;;;5111339;28;20027;-58
2021/09/02 10:20:34;;;;;;;20.60;14.07;;;;;;;;;;5111256;28;20125;-57
2021/09/02 10:23:00;;;;;;;16.17;12.57;;;;;;;;;;5110828;28;20024;-56
2021/09/02 10:25:38;;;;;;;18.58;13.60;;;;;;;;;;5111118;28;20551;-59
2021/09/02 10:28:09;;;;;;;15.63;13.25;;;;;;;;;;5109965;28;20063;-58
2021/09/02 10:30:44;;;;;;;19.40;14.45;;;;;;;;;;5114568;28;20023;-58
2021/09/02 10:33:27;;;;;;;16.88;13.60;;;;;;;;;;5114279;28;20073;-57
2021/09/02 10:35:53;;;;;;;16.08;12.05;;;;;;;;;;5114784;28;20027;-59
2021/09/02 10:38:34;;;;;;;17.47;13.90;;;;;;;;;;5114341;28;20361;-58
2021/09/02 10:40:59;;;;;;;12.93;11.63;;;;;;;;;;5114320;28;20732;-57
2021/09/02 10:43:43;;;;;;;12.38;11.05;;;;;;;;;;5114456;28;20130;-58
2021/09/02 10:46:22;;;;;;;13.60;11.02;;;;;;;;;;5096471;28;20024;-57
2021/09/02 10:48:47;;;;;;;12.25;10.25;;;;;;;;;;5097365;28;20027;-58
2021/09/02 10:51:31;;;;;;;11.57;10.23;;;;;;;;;;5114310;28;20028;-56
2021/09/02 10:54:00;;;;;;;12.18;9.88;;;;;;;;;;5114383;28;20461;-59
2021/09/02 10:56:30;;;;;;;11.53;9.27;;;;;;;;;;5112193;28;20027;-59
2021/09/02 10:58:55;;;;;;;11.43;8.93;;;;;;;;;;5113827;28;20016;-58
2021/09/02 11:01:20;;;;;;;10.23;9.13;;;;;;;;;;5106577;28;20095;-58
2021/09/02 11:03:46;;;;;;;12.33;9.80;;;;;;;;;;5106644;28;20280;-58
2021/09/02 11:06:12;;;;;;;11.57;9.50;;;;;;;;;;5114512;28;20261;-56
2021/09/02 11:08:37;;;;;;;12.25;9.48;;;;;;;;;;5114299;28;20107;-56
2021/09/02 11:11:15;;;;;;;12.48;9.48;;;;;;;;;;5112970;28;20091;-55
2021/09/02 11:13:40;;;;;;;9.32;8.07;;;;;;;;;;5113112;28;20026;-58
2021/09/02 11:16:08;;;;;;;10.63;8.95;;;;;;;;;;5110110;27;20031;-58
2021/09/02 11:18:41;;;;;;;9.60;8.60;;;;;;;;;;5113977;28;20027;-57
2021/09/02 11:21:10;;;;;;;9.60;8.60;;;;;;;;;;5094786;28;20034;-59
2021/09/02 11:23:36;;;;;;;9.50;8.40;;;;;;;;;;5099053;28;20454;-57
2021/09/02 11:26:01;;;;;;;9.55;8.10;;;;;;;;;;5098810;28;20007;-58
2021/09/02 11:28:26;;;;;;;8.00;7.20;;;;;;;;;;5112838;28;20039;-59
2021/09/02 11:30:52;;;;;;;7.50;6.80;;;;;;;;;;5113806;28;20028;-58
2021/09/02 11:33:18;;;;;;;7.28;6.57;;;;;;;;;;5113355;28;20065;-58
2021/09/02 11:35:53;;;;;;;7.25;6.55;;;;;;;;;;5113472;28;20027;-57
2021/09/02 11:38:18;;;;;;;8.13;5.80;;;;;;;;;;5110905;28;20044;-58
2021/09/02 11:40:44;;;;;;;5.90;5.30;;;;;;;;;;5113295;28;20022;-55
2021/09/02 11:43:16;;;;;;;7.13;5.30;;;;;;;;;;5112915;28;20527;-57
2021/09/02 11:45:48;;;;;;;6.05;5.43;;;;;;;;;;5125158;27;20015;-58
2021/09/02 11:48:13;;;;;;;5.72;5.13;;;;;;;;;;5117475;27;20016;-56
2021/09/02 11:50:38;;;;;;;7.10;6.03;;;;;;;;;;5113383;28;20028;-57
2021/09/02 11:53:03;;;;;;;6.33;5.10;;;;;;;;;;5113448;28;20061;-58
2021/09/02 11:55:30;;;;;;;5.40;4.90;;;;;;;;;;5113688;27;20011;-57
2021/09/02 11:57:59;;;;;;;6.57;5.97;;;;;;;;;;5115248;27;20491;-57
2021/09/02 12:00:25;;;;;;;5.30;4.80;;;;;;;;;;5113312;28;20020;-58
2021/09/02 12:02:51;;;;;;;4.72;4.32;;;;;;;;;;5115385;27;20048;-58
2021/09/02 12:05:21;;;;;;;5.55;5.05;;;;;;;;;;5112726;28;20030;-57
2021/09/02 12:07:50;;;;;;;5.53;5.00;;;;;;;;;;5112753;28;20161;-58
2021/09/02 12:10:17;;;;;;;5.95;5.38;;;;;;;;;;5100807;28;20261;-58
2021/09/02 12:12:42;;;;;;;4.97;4.20;;;;;;;;;;5121552;27;20108;-57
2021/09/02 12:15:23;;;;;;;5.27;4.77;;;;;;;;;;5108432;28;20054;-58
2021/09/02 12:17:49;;;;;;;5.03;4.32;;;;;;;;;;5112603;28;20306;-59
2021/09/02 12:20:22;;;;;;;5.95;4.10;;;;;;;;;;5112700;28;20019;-57
2021/09/02 12:22:48;;;;;;;6.32;4.45;;;;;;;;;;5112656;28;20030;-59
2021/09/02 12:25:14;;;;;;;5.70;5.20;;;;;;;;;;5112361;28;20020;-58
2021/09/02 12:27:46;;;;;;;5.55;4.57;;;;;;;;;;5110762;28;20062;-59
2021/09/02 12:30:11;;;;;;;5.82;4.93;;;;;;;;;;5108006;28;20514;-59
2021/09/02 12:32:37;;;;;;;5.03;4.53;;;;;;;;;;5103226;28;20081;-58
2021/09/02 12:35:11;;;;;;;5.07;4.63;;;;;;;;;;5111413;28;20019;-57
2021/09/02 12:37:38;;;;;;;7.22;4.45;;;;;;;;;;5108532;28;20034;-58
2021/09/02 12:40:04;;;;;;;5.20;4.70;;;;;;;;;;5112866;28;20012;-59
2021/09/02 12:42:30;;;;;;;5.68;4.75;;;;;;;;;;5111691;28;20070;-57
2021/09/02 12:45:27;;;;;;;5.50;5.00;;;;;;;;;;5112760;28;20047;-59
2021/09/02 12:47:59;;;;;;;4.95;4.55;;;;;;;;;;5117249;27;20036;-57
2021/09/02 12:50:25;;;;;;;6.15;5.20;;;;;;;;;;5112225;28;20055;-56
2021/09/02 12:52:50;;;;;;;6.65;5.97;;;;;;;;;;5112638;28;20016;-58
2021/09/02 12:55:18;;;;;;;4.85;4.45;;;;;;;;;;5112471;28;20030;-58
2021/09/02 12:57:48;;;;;;;5.00;4.50;;;;;;;;;;5111574;28;20061;-58
2021/09/02 13:00:18;;;;;;;6.03;5.40;;;;;;;;;;5112820;28;20020;-58
2021/09/02 13:02:45;;;;;;;5.13;4.70;;;;;;;;;;5112466;28;20019;-59
2021/09/02 13:05:11;;;;;;;4.53;4.13;;;;;;;;;;5112482;28;20022;-57
2021/09/02 13:07:46;;;;;;;5.00;4.10;;;;;;;;;;5112144;28;20106;-57
2021/09/02 13:10:12;;;;;;;6.45;5.15;;;;;;;;;;5112253;28;20072;-57
2021/09/02 13:12:38;;;;;;;5.97;4.80;;;;;;;;;;5111610;28;20020;-58
2021/09/02 13:15:03;;;;;;;5.63;5.23;;;;;;;;;;5112101;28;20103;-58
2021/09/02 13:17:29;;;;;;;6.20;5.10;;;;;;;;;;5111808;28;20039;-58
2021/09/02 13:19:54;;;;;;;6.03;5.43;;;;;;;;;;5112340;28;20094;-58
2021/09/02 13:22:19;;;;;;;6.00;5.37;;;;;;;;;;5112050;28;20048;-57
2021/09/02 13:24:45;;;;;;;4.90;4.10;;;;;;;;;;5117462;28;20476;-56
2021/09/02 13:27:10;;;;;;;6.25;5.13;;;;;;;;;;5111290;28;20016;-57
2021/09/02 13:29:36;;;;;;;6.80;6.10;;;;;;;;;;5101756;28;20039;-58
2021/09/02 13:32:01;;;;;;;6.57;5.97;;;;;;;;;;5099731;28;20032;-58
2021/09/02 13:34:26;;;;;;;5.40;4.87;;;;;;;;;;5107502;28;20269;-58
2021/09/02 13:36:51;;;;;;;5.60;4.83;;;;;;;;;;5093146;28;20122;-58
2021/09/02 13:39:17;;;;;;;6.13;4.80;;;;;;;;;;5111069;28;20055;-58
2021/09/02 13:41:42;;;;;;;5.47;4.97;;;;;;;;;;5105882;28;20083;-58
2021/09/02 13:44:07;;;;;;;5.03;4.50;;;;;;;;;;5114796;28;20515;-58
2021/09/02 13:46:32;;;;;;;5.43;4.90;;;;;;;;;;5110586;28;20103;-57
2021/09/02 13:48:57;;;;;;;5.60;4.30;;;;;;;;;;5111854;28;20031;-57
2021/09/02 13:51:23;;;;;;;3.87;3.57;;;;;;;;;;5111468;28;20047;-57
2021/09/02 13:53:48;;;;;;;4.27;3.87;;;;;;;;;;5110908;28;20032;-57
2021/09/02 13:56:13;;;;;;;4.63;4.00;;;;;;;;;;5110684;28;20015;-58
2021/09/02 13:58:38;;;;;;;4.57;4.17;;;;;;;;;;5111242;28;20334;-58
2021/09/02 14:01:04;;;;;;;5.57;4.00;;;;;;;;;;5106183;28;20269;-57
2021/09/02 14:03:29;;;;;;;5.67;4.73;;;;;;;;;;5096825;28;20088;-57
2021/09/02 14:05:55;;;;;;;6.68;4.75;;;;;;;;;;5115516;28;20020;-58
2021/09/02 14:08:20;;;;;;;7.18;5.60;;;;;;;;;;5114917;28;20466;-58
2021/09/02 14:10:45;;;;;;;6.00;4.97;;;;;;;;;;5114707;28;20527;-56
2021/09/02 14:13:11;;;;;;;5.03;4.63;;;;;;;;;;5114575;28;20031;-57
2021/09/02 14:15:36;;;;;;;6.38;5.78;;;;;;;;;;5115127;28;20030;-58
2021/09/02 14:18:01;;;;;;;6.37;5.37;;;;;;;;;;5114641;28;20476;-56
2021/09/02 14:20:26;;;;;;;5.27;4.77;;;;;;;;;;5115783;28;20068;-58